createdAt,value
2017-12-05T00:01:10.002Z,29.57
2017-12-05T00:03:37.449Z,36.63
2017-12-05T00:06:04.901Z,28.90
2017-12-05T00:08:32.362Z,37.30
2017-12-05T00:10:59.808Z,29.10
2017-12-05T00:13:27.269Z,30.67
2017-12-05T00:15:54.736Z,28.53
2017-12-05T00:18:22.201Z,26.83
2017-12-05T00:20:49.647Z,27.73
2017-12-05T00:23:17.111Z,22.70
2017-12-05T00:25:44.549Z,29.50
2017-12-05T00:28:12.035Z,28.23
2017-12-05T00:30:39.465Z,30.07
2017-12-05T00:33:06.909Z,26.63
2017-12-05T00:35:53.638Z,22.57
2017-12-05T00:38:21.090Z,24.87
2017-12-05T00:40:48.548Z,23.50
2017-12-05T00:43:15.996Z,23.90
2017-12-05T00:45:43.453Z,25.63
2017-12-05T00:48:11.715Z,24.27
2017-12-05T00:50:39.167Z,30.80
2017-12-05T00:53:06.613Z,26.30
2017-12-05T00:55:34.064Z,27.37
2017-12-05T00:58:02.301Z,20.50
2017-12-05T01:00:29.748Z,24.83
2017-12-05T01:02:57.228Z,26.57
2017-12-05T01:05:24.672Z,26.77
2017-12-05T01:07:52.144Z,25.10
2017-12-05T01:10:20.369Z,23.97
2017-12-05T01:12:47.814Z,26.37
2017-12-05T01:15:15.251Z,29.77
2017-12-05T01:17:42.719Z,33.03
2017-12-05T01:20:10.173Z,31.50
2017-12-05T01:22:37.621Z,29.60
2017-12-05T01:25:05.847Z,30.40
2017-12-05T01:27:33.311Z,30.73
2017-12-05T01:30:00.785Z,24.50
2017-12-05T01:32:28.238Z,29.27
2017-12-05T01:34:55.694Z,30.67
2017-12-05T01:37:23.165Z,27.07
2017-12-05T01:39:50.621Z,26.53
2017-12-05T01:42:18.072Z,25.90
2017-12-05T01:44:45.561Z,26.90
2017-12-05T01:47:13.781Z,27.70
2017-12-05T01:49:41.239Z,33.30
2017-12-05T01:52:08.681Z,36.07
2017-12-05T01:54:36.133Z,29.27
2017-12-05T01:57:03.604Z,29.27
2017-12-05T01:59:31.094Z,24.70
2017-12-05T02:01:59.544Z,27.37
2017-12-05T02:04:26.991Z,28.10
2017-12-05T02:06:54.441Z,30.47
2017-12-05T02:09:21.884Z,26.43
2017-12-05T02:11:49.355Z,31.00
2017-12-05T02:14:16.792Z,24.80
2017-12-05T02:16:44.257Z,27.07
2017-12-05T02:19:11.761Z,27.47
2017-12-05T02:21:39.202Z,24.27
2017-12-05T02:24:06.663Z,24.90
2017-12-05T02:26:34.127Z,26.83
2017-12-05T02:29:01.613Z,26.03
2017-12-05T02:31:29.065Z,27.00
2017-12-05T02:33:56.500Z,26.20
2017-12-05T02:36:24.009Z,26.37
2017-12-05T02:38:52.223Z,27.33
2017-12-05T02:41:19.672Z,34.40
2017-12-05T02:43:47.111Z,29.67
2017-12-05T02:46:14.574Z,27.13
2017-12-05T02:48:42.020Z,32.93
2017-12-05T02:51:10.244Z,26.63
2017-12-05T02:53:37.670Z,30.67
2017-12-05T02:56:05.127Z,29.60
2017-12-05T02:58:32.589Z,29.93
2017-12-05T03:01:00.074Z,28.60
2017-12-05T03:06:25.571Z,29.10
2017-12-05T03:08:53.007Z,35.77
2017-12-05T03:11:20.476Z,27.10
2017-12-05T03:13:47.916Z,27.40
2017-12-05T03:16:15.404Z,28.13
2017-12-05T03:18:42.845Z,27.37
2017-12-05T03:21:10.310Z,32.67
2017-12-05T03:23:37.743Z,32.83
2017-12-05T03:26:05.958Z,28.50
2017-12-05T03:28:33.391Z,31.67
2017-12-05T03:31:00.839Z,27.03
2017-12-05T03:33:28.324Z,28.83
2017-12-05T03:35:55.797Z,33.30
2017-12-05T03:38:23.225Z,29.33
2017-12-05T03:40:51.495Z,32.30
2017-12-05T03:43:18.981Z,30.30
2017-12-05T03:45:46.432Z,27.47
2017-12-05T03:48:13.903Z,34.13
2017-12-05T03:50:41.364Z,29.03
2017-12-05T03:53:08.801Z,28.60
2017-12-05T03:55:37.008Z,32.87
2017-12-05T03:58:07.204Z,32.50
2017-12-05T04:00:34.647Z,25.23
2017-12-05T04:03:02.122Z,30.97
2017-12-05T04:05:29.556Z,27.37
2017-12-05T04:07:57.100Z,28.90
2017-12-05T04:10:25.382Z,28.47
2017-12-05T04:12:52.843Z,31.70
2017-12-05T04:15:20.281Z,25.50
2017-12-05T04:17:49.440Z,27.83
2017-12-05T04:20:16.893Z,28.20
2017-12-05T04:22:44.328Z,27.23
2017-12-05T04:25:11.863Z,34.00
2017-12-05T04:27:40.073Z,28.00
2017-12-05T04:30:08.264Z,22.50
2017-12-05T04:32:35.725Z,28.83
2017-12-05T04:35:03.173Z,29.17
2017-12-05T04:37:30.635Z,27.70
2017-12-05T04:39:58.077Z,28.10
2017-12-05T04:42:42.430Z,32.40
2017-12-05T04:45:09.882Z,31.37
2017-12-05T04:47:37.352Z,31.77
2017-12-05T04:50:04.821Z,35.47
2017-12-05T04:52:32.268Z,30.20
2017-12-05T04:54:59.788Z,31.73
2017-12-05T04:57:27.241Z,32.97
2017-12-05T04:59:54.681Z,31.67
2017-12-05T05:02:22.955Z,32.40
2017-12-05T05:04:50.428Z,34.50
2017-12-05T05:07:18.647Z,32.63
2017-12-05T05:09:46.093Z,34.87
2017-12-05T05:12:13.551Z,30.67
2017-12-05T05:14:41.088Z,34.93
2017-12-05T05:17:08.583Z,26.87
2017-12-05T05:19:36.032Z,28.83
2017-12-05T05:22:03.509Z,32.70
2017-12-05T05:24:30.978Z,32.17
2017-12-05T05:27:00.414Z,26.43
2017-12-05T05:29:28.621Z,30.87
2017-12-05T05:31:58.088Z,30.43
2017-12-05T05:34:26.303Z,26.23
2017-12-05T05:37:01.007Z,29.07
2017-12-05T05:39:34.916Z,31.80
2017-12-05T05:42:02.351Z,30.97
2017-12-05T05:44:30.557Z,27.83
2017-12-05T05:46:57.988Z,29.30
2017-12-05T05:49:25.425Z,29.60
2017-12-05T05:51:52.850Z,29.57
2017-12-05T05:54:20.304Z,29.20
2017-12-05T05:57:05.179Z,32.80
2017-12-05T05:59:32.621Z,31.50
2017-12-05T06:02:00.056Z,29.93
2017-12-05T06:04:27.490Z,34.00
2017-12-05T06:06:55.687Z,27.10
2017-12-05T06:09:23.133Z,39.10
2017-12-05T06:11:51.325Z,30.67
2017-12-05T06:14:18.765Z,37.10
2017-12-05T06:16:46.196Z,29.93
2017-12-05T06:19:13.668Z,28.23
2017-12-05T06:21:41.076Z,29.37
2017-12-05T06:24:08.517Z,33.20
2017-12-05T06:26:35.943Z,36.27
2017-12-05T06:29:03.379Z,33.83
2017-12-05T06:31:30.804Z,30.07
2017-12-05T06:33:58.242Z,37.67
2017-12-05T06:36:30.256Z,32.43
2017-12-05T06:38:59.671Z,28.83
2017-12-05T06:41:27.871Z,30.17
2017-12-05T06:44:02.124Z,28.53
2017-12-05T06:46:29.548Z,30.93
2017-12-05T06:48:57.004Z,36.47
2017-12-05T06:51:24.432Z,32.37
2017-12-05T06:53:52.642Z,32.70
2017-12-05T06:56:20.089Z,29.80
2017-12-05T06:58:47.545Z,29.43
2017-12-05T07:01:37.896Z,27.30
2017-12-05T07:04:05.344Z,27.90
2017-12-05T07:06:47.202Z,25.50
2017-12-05T07:09:15.420Z,25.90
2017-12-05T07:11:42.888Z,27.30
2017-12-05T07:14:10.330Z,20.57
2017-12-05T07:16:37.763Z,20.00
2017-12-05T07:19:05.211Z,20.37
2017-12-05T07:21:32.636Z,14.40
2017-12-05T07:24:00.881Z,18.90
2017-12-05T07:26:28.304Z,18.73
2017-12-05T07:28:55.740Z,21.77
2017-12-05T07:31:23.188Z,18.30
2017-12-05T07:33:50.713Z,16.20
2017-12-05T07:36:18.178Z,16.87
2017-12-05T07:38:48.620Z,16.30
2017-12-05T07:41:16.813Z,20.90
2017-12-05T07:43:44.295Z,16.97
2017-12-05T07:46:11.810Z,19.30
2017-12-05T07:48:39.229Z,19.70
2017-12-05T07:51:11.925Z,17.23
2017-12-05T07:53:39.363Z,15.67
2017-12-05T07:56:07.573Z,18.53
2017-12-05T07:58:35.032Z,16.00
2017-12-05T08:01:17.283Z,14.13
2017-12-05T08:03:44.740Z,17.00
2017-12-05T08:06:12.211Z,16.10
2017-12-05T08:09:01.173Z,16.23
2017-12-05T08:11:28.620Z,20.30
2017-12-05T08:13:56.048Z,14.20
2017-12-05T08:16:23.489Z,17.97
2017-12-05T08:18:51.681Z,12.67
2017-12-05T08:21:19.124Z,14.03
2017-12-05T08:23:47.314Z,14.50
2017-12-05T08:26:14.744Z,17.97
2017-12-05T08:28:42.954Z,11.20
2017-12-05T08:31:10.394Z,13.80
2017-12-05T08:33:38.576Z,17.20
2017-12-05T08:36:06.114Z,16.27
2017-12-05T08:38:33.527Z,13.27
2017-12-05T08:41:00.976Z,16.37
2017-12-05T08:43:28.410Z,12.57
2017-12-05T08:45:55.851Z,15.93
2017-12-05T08:48:24.066Z,17.03
2017-12-05T08:50:51.551Z,17.60
2017-12-05T08:53:18.989Z,19.67
2017-12-05T08:55:46.435Z,17.10
2017-12-05T08:58:13.872Z,16.00
2017-12-05T09:00:41.312Z,14.17
2017-12-05T09:03:09.507Z,11.37
2017-12-05T09:05:36.948Z,11.90
2017-12-05T09:08:04.388Z,11.13
2017-12-05T09:10:32.580Z,12.83
2017-12-05T09:13:00.029Z,12.73
2017-12-05T09:15:28.251Z,12.50
2017-12-05T09:17:55.727Z,12.40
2017-12-05T09:20:23.172Z,11.83
2017-12-05T09:22:50.611Z,14.00
2017-12-05T09:25:18.800Z,13.13
2017-12-05T09:27:46.223Z,11.00
2017-12-05T09:30:13.659Z,10.67
2017-12-05T09:32:41.876Z,13.47
2017-12-05T09:35:09.309Z,13.27
2017-12-05T09:37:36.736Z,15.03
2017-12-05T09:40:04.217Z,15.10
2017-12-05T09:42:32.424Z,13.10
2017-12-05T09:44:59.863Z,13.43
2017-12-05T09:47:28.453Z,13.13
2017-12-05T09:49:55.916Z,11.87
2017-12-05T09:52:23.328Z,16.90
2017-12-05T09:55:01.105Z,13.00
2017-12-05T09:57:28.529Z,10.50
2017-12-05T09:59:55.965Z,10.57
2017-12-05T10:02:23.399Z,14.13
2017-12-05T10:04:52.694Z,8.80
2017-12-05T10:07:20.205Z,8.37
2017-12-05T10:09:47.644Z,17.23
2017-12-05T10:12:15.072Z,11.27
2017-12-05T10:14:43.267Z,13.33
2017-12-05T10:17:10.727Z,10.63
2017-12-05T10:19:38.147Z,9.70
2017-12-05T10:22:05.699Z,13.17
2017-12-05T10:24:33.201Z,11.50
2017-12-05T10:27:00.652Z,10.33
2017-12-05T10:29:28.872Z,12.67
2017-12-05T10:31:56.312Z,11.00
2017-12-05T10:34:23.770Z,10.47
2017-12-05T10:36:51.201Z,8.10
2017-12-05T10:39:18.619Z,11.33
2017-12-05T10:41:46.051Z,12.27
2017-12-05T10:44:13.491Z,13.47
2017-12-05T10:46:40.913Z,10.60
2017-12-05T10:49:13.098Z,12.93
2017-12-05T10:51:47.605Z,12.37
2017-12-05T10:54:21.629Z,11.30
2017-12-05T10:56:49.120Z,14.23
2017-12-05T10:59:16.485Z,10.90
2017-12-05T11:01:43.975Z,9.07
2017-12-05T11:04:11.411Z,13.40
2017-12-05T11:06:38.844Z,10.73
2017-12-05T11:09:06.296Z,14.13
2017-12-05T11:11:33.760Z,16.03
2017-12-05T11:14:01.219Z,13.00
2017-12-05T11:16:28.675Z,10.73
2017-12-05T11:18:56.109Z,7.73
2017-12-05T11:21:23.546Z,12.07
2017-12-05T11:23:51.751Z,12.23
2017-12-05T11:26:19.184Z,13.10
2017-12-05T11:28:46.628Z,12.07
2017-12-05T11:31:14.074Z,10.47
2017-12-05T11:33:41.516Z,12.97
2017-12-05T11:36:08.977Z,11.87
2017-12-05T11:38:36.400Z,12.70
2017-12-05T11:41:03.855Z,17.00
2017-12-05T11:43:31.324Z,14.87
2017-12-05T11:45:58.745Z,16.53
2017-12-05T11:48:26.168Z,10.00
2017-12-05T11:50:53.596Z,8.47
2017-12-05T11:53:21.048Z,14.23
2017-12-05T11:55:48.485Z,10.47
2017-12-05T11:58:20.040Z,11.70
2017-12-05T12:00:47.467Z,14.33
2017-12-05T12:03:14.894Z,9.13
2017-12-05T12:05:42.332Z,11.07
2017-12-05T12:08:09.759Z,9.60
2017-12-05T12:10:37.191Z,9.67
2017-12-05T12:16:07.491Z,13.70
2017-12-05T12:18:34.935Z,10.23
2017-12-05T12:21:02.444Z,13.50
2017-12-05T12:23:29.917Z,11.03
2017-12-05T12:25:57.353Z,11.13
2017-12-05T12:28:24.784Z,13.20
2017-12-05T12:30:52.207Z,12.83
2017-12-05T12:33:24.756Z,13.17
2017-12-05T12:35:52.176Z,14.73
2017-12-05T12:38:19.615Z,11.37
2017-12-05T12:40:47.049Z,10.73
2017-12-05T12:43:14.482Z,11.63
2017-12-05T12:45:42.676Z,12.53
2017-12-05T12:48:10.861Z,11.10
2017-12-05T12:50:38.283Z,13.07
2017-12-05T12:53:05.753Z,16.83
2017-12-05T12:55:33.963Z,14.90
2017-12-05T12:58:01.425Z,14.30
2017-12-05T13:00:28.864Z,14.60
2017-12-05T13:02:56.315Z,12.57
2017-12-05T13:05:23.740Z,11.77
2017-12-05T13:07:51.171Z,17.97
2017-12-05T13:10:18.590Z,13.70
2017-12-05T13:12:50.933Z,13.83
2017-12-05T13:15:19.116Z,16.70
2017-12-05T13:17:47.343Z,13.90
2017-12-05T13:20:14.776Z,13.17
2017-12-05T13:22:42.184Z,11.83
2017-12-05T13:25:09.619Z,14.53
2017-12-05T13:27:37.100Z,11.30
2017-12-05T13:30:04.528Z,14.27
2017-12-05T13:32:31.974Z,14.83
2017-12-05T13:34:59.419Z,14.87
2017-12-05T13:37:26.859Z,18.03
2017-12-05T13:39:54.302Z,14.90
2017-12-05T13:42:21.737Z,16.00
2017-12-05T13:44:49.196Z,13.57
2017-12-05T13:47:16.634Z,15.80
2017-12-05T13:49:44.090Z,12.53
2017-12-05T13:52:11.537Z,13.03
2017-12-05T13:54:38.993Z,16.40
2017-12-05T13:57:06.440Z,17.67
2017-12-05T13:59:33.900Z,17.83
2017-12-05T14:02:01.381Z,17.37
2017-12-05T14:04:28.824Z,14.53
2017-12-05T14:06:56.265Z,11.00
2017-12-05T14:09:23.702Z,14.23
2017-12-05T14:11:51.153Z,13.20
2017-12-05T14:14:20.349Z,13.60
2017-12-05T14:16:48.569Z,14.80
2017-12-05T14:19:16.040Z,16.43
2017-12-05T14:21:50.084Z,18.50
2017-12-05T14:24:18.287Z,14.77
2017-12-05T14:26:45.812Z,19.17
2017-12-05T14:29:13.235Z,15.57
2017-12-05T14:31:41.741Z,14.30
2017-12-05T14:34:09.184Z,16.20
2017-12-05T14:36:36.612Z,16.23
2017-12-05T14:39:04.056Z,14.53
2017-12-05T14:41:31.480Z,16.20
2017-12-05T14:43:59.676Z,16.47
2017-12-05T14:46:27.135Z,14.27
2017-12-05T14:48:55.329Z,22.00
2017-12-05T14:51:22.762Z,18.83
2017-12-05T14:53:50.189Z,16.10
2017-12-05T14:56:17.613Z,18.77
2017-12-05T14:58:45.059Z,16.97
2017-12-05T15:01:12.503Z,18.77
2017-12-05T15:03:39.918Z,13.67
2017-12-05T15:06:07.343Z,15.97
2017-12-05T15:08:34.782Z,21.43
2017-12-05T15:11:02.237Z,16.77
2017-12-05T15:13:29.664Z,20.20
2017-12-05T15:15:57.856Z,16.50
2017-12-05T15:18:25.304Z,20.20
2017-12-05T15:20:52.732Z,16.23
2017-12-05T15:23:20.171Z,17.07
2017-12-05T15:25:47.608Z,23.13
2017-12-05T15:28:15.044Z,16.70
2017-12-05T15:30:42.469Z,19.77
2017-12-05T15:33:10.665Z,16.63
2017-12-05T15:35:38.107Z,17.20
2017-12-05T15:38:06.312Z,21.00
2017-12-05T15:40:33.736Z,16.63
2017-12-05T15:43:01.940Z,19.00
2017-12-05T15:45:29.368Z,18.20
2017-12-05T15:47:57.564Z,23.50
2017-12-05T15:50:29.300Z,19.67
2017-12-05T15:52:57.501Z,22.80
2017-12-05T15:55:24.933Z,19.67
2017-12-05T15:57:53.127Z,19.70
2017-12-05T16:00:26.503Z,17.47
2017-12-05T16:02:54.691Z,21.83
2017-12-05T16:05:22.124Z,24.00
2017-12-05T16:07:49.552Z,23.03
2017-12-05T16:10:16.989Z,20.50
2017-12-05T16:12:44.420Z,16.87
2017-12-05T16:15:11.852Z,26.37
2017-12-05T16:17:39.284Z,23.50
2017-12-05T16:20:06.716Z,21.93
2017-12-05T16:22:34.152Z,19.50
2017-12-05T16:25:01.577Z,21.80
2017-12-05T16:27:29.052Z,17.50
2017-12-05T16:29:57.244Z,19.70
2017-12-05T16:32:24.685Z,20.50
2017-12-05T16:34:52.883Z,18.13
2017-12-05T16:37:20.312Z,21.87
2017-12-05T16:39:48.508Z,22.20
2017-12-05T16:42:15.989Z,21.73
2017-12-05T16:44:45.207Z,19.07
2017-12-05T16:47:13.408Z,19.90
2017-12-05T16:49:44.778Z,20.87
2017-12-05T16:52:12.220Z,22.00
2017-12-05T16:54:40.429Z,22.63
2017-12-05T16:57:18.596Z,18.93
2017-12-05T16:59:46.849Z,18.83
2017-12-05T17:02:14.305Z,19.80
2017-12-05T17:04:41.745Z,21.77
2017-12-05T17:07:09.192Z,21.90
2017-12-05T17:09:36.628Z,19.50
2017-12-05T17:12:04.062Z,20.83
2017-12-05T17:14:32.307Z,23.20
2017-12-05T17:16:59.752Z,19.20
2017-12-05T17:19:27.213Z,21.63
2017-12-05T17:21:54.682Z,21.03
2017-12-05T17:24:22.113Z,17.23
2017-12-05T17:26:51.597Z,22.20
2017-12-05T17:29:19.024Z,18.93
2017-12-05T17:31:47.281Z,19.90
2017-12-05T17:34:17.842Z,22.63
2017-12-05T17:36:46.050Z,26.93
2017-12-05T17:39:17.144Z,24.10
2017-12-05T17:41:45.624Z,23.30
2017-12-05T17:44:19.524Z,20.63
2017-12-05T17:46:50.471Z,22.73
2017-12-05T17:49:18.037Z,22.17
2017-12-05T17:51:45.353Z,20.87
2017-12-05T17:54:12.810Z,23.17
2017-12-05T17:56:40.257Z,21.23
2017-12-05T17:59:07.706Z,22.63
2017-12-05T18:01:35.132Z,20.00
2017-12-05T18:04:02.631Z,20.90
2017-12-05T18:06:30.097Z,20.60
2017-12-05T18:08:57.523Z,20.53
2017-12-05T18:11:24.959Z,19.03
2017-12-05T18:13:53.194Z,21.97
2017-12-05T18:16:20.654Z,24.10
2017-12-05T18:18:48.092Z,21.73
2017-12-05T18:21:15.545Z,24.90
2017-12-05T18:23:42.975Z,22.90
2017-12-05T18:26:10.403Z,26.70
2017-12-05T18:28:37.837Z,18.37
2017-12-05T18:31:05.265Z,23.83
2017-12-05T18:33:32.696Z,18.20
2017-12-05T18:36:00.129Z,21.70
2017-12-05T18:38:27.564Z,26.53
2017-12-05T18:40:59.518Z,23.93
2017-12-05T18:43:33.242Z,22.70
2017-12-05T18:46:00.698Z,20.27
2017-12-05T18:48:28.152Z,20.27
2017-12-05T18:50:55.593Z,18.10
2017-12-05T18:53:23.800Z,20.23
2017-12-05T18:55:51.231Z,23.23
2017-12-05T18:58:18.677Z,21.90
2017-12-05T19:00:46.114Z,23.63
2017-12-05T19:03:13.562Z,17.33
2017-12-05T19:05:40.988Z,23.27
2017-12-05T19:08:09.212Z,21.40
2017-12-05T19:10:36.641Z,21.13
2017-12-05T19:13:04.100Z,21.53
2017-12-05T19:15:31.534Z,26.00
2017-12-05T19:17:59.045Z,20.63
2017-12-05T19:20:26.422Z,19.00
2017-12-05T19:22:53.904Z,19.30
2017-12-05T19:25:21.317Z,26.60
2017-12-05T19:27:48.750Z,19.27
2017-12-05T19:30:16.217Z,20.17
2017-12-05T19:32:43.661Z,18.60
2017-12-05T19:35:11.101Z,22.00
2017-12-05T19:37:38.530Z,17.77
2017-12-05T19:40:05.964Z,19.63
2017-12-05T19:42:33.388Z,20.30
2017-12-05T19:45:01.053Z,19.60
2017-12-05T19:47:28.481Z,30.20
2017-12-05T19:49:55.937Z,26.87
2017-12-05T19:52:23.369Z,26.30
2017-12-05T19:54:50.812Z,22.93
2017-12-05T19:57:18.309Z,22.20
2017-12-05T19:59:46.512Z,20.10
2017-12-05T20:02:13.960Z,21.90
2017-12-05T20:04:42.164Z,20.00
2017-12-05T20:07:09.599Z,19.43
2017-12-05T20:09:37.045Z,20.03
2017-12-05T20:12:05.252Z,22.53
2017-12-05T20:14:45.508Z,22.10
2017-12-05T20:17:13.218Z,18.97
2017-12-05T20:19:40.661Z,20.30
2017-12-05T20:22:08.101Z,21.87
2017-12-05T20:24:35.542Z,23.33
2017-12-05T20:27:03.023Z,25.20
2017-12-05T20:29:30.461Z,22.13
2017-12-05T20:34:30.880Z,21.73
2017-12-05T20:37:00.380Z,22.93
2017-12-05T20:39:28.601Z,21.67
2017-12-05T20:41:56.020Z,24.77
2017-12-05T20:44:23.460Z,25.37
2017-12-05T20:46:51.670Z,24.80
2017-12-05T20:49:19.101Z,24.90
2017-12-05T20:51:46.536Z,22.97
2017-12-05T20:54:13.961Z,22.70
2017-12-05T20:56:41.401Z,23.73
2017-12-05T20:59:08.854Z,21.30
2017-12-05T21:01:36.299Z,25.27
2017-12-05T21:04:03.804Z,22.77
2017-12-05T21:06:31.236Z,23.07
2017-12-05T21:08:58.664Z,26.37
2017-12-05T21:11:26.098Z,33.80
2017-12-05T21:13:54.279Z,28.00
2017-12-05T21:16:22.513Z,24.03
2017-12-05T21:18:50.954Z,26.37
2017-12-05T21:21:18.376Z,27.20
2017-12-05T21:23:45.844Z,25.20
2017-12-05T21:26:13.245Z,21.70
2017-12-05T21:28:40.684Z,23.90
2017-12-05T21:31:08.112Z,28.60
2017-12-05T21:33:35.590Z,21.20
2017-12-05T21:36:07.660Z,23.07
2017-12-05T21:38:35.092Z,27.27
2017-12-05T21:41:03.292Z,23.33
2017-12-05T21:43:32.681Z,25.03
2017-12-05T21:46:13.258Z,22.40
2017-12-05T21:48:40.691Z,20.70
2017-12-05T21:51:08.893Z,20.67
2017-12-05T21:53:36.329Z,24.37
2017-12-05T21:56:04.538Z,22.63
2017-12-05T21:58:31.981Z,22.17
2017-12-05T22:00:59.485Z,26.70
2017-12-05T22:03:26.904Z,27.50
2017-12-05T22:05:54.340Z,23.87
2017-12-05T22:08:22.696Z,21.60
2017-12-05T22:10:50.132Z,25.97
2017-12-05T22:16:11.905Z,25.20
2017-12-05T22:18:40.108Z,22.77
2017-12-05T22:21:07.535Z,24.90
2017-12-05T22:23:35.731Z,22.90
2017-12-05T22:26:03.168Z,24.07
2017-12-05T22:28:31.364Z,21.93
2017-12-05T22:30:58.805Z,20.97
2017-12-05T22:33:27.000Z,26.90
2017-12-05T22:35:54.445Z,21.70
2017-12-05T22:38:22.632Z,22.43
2017-12-05T22:40:50.065Z,23.43
2017-12-05T22:43:18.255Z,24.23
2017-12-05T22:45:45.690Z,21.53
2017-12-05T22:48:13.120Z,24.27
2017-12-05T22:50:40.556Z,26.80
2017-12-05T22:53:07.998Z,20.27
2017-12-05T22:55:35.417Z,22.50
2017-12-05T22:58:02.868Z,22.53
2017-12-05T23:00:30.284Z,21.57
2017-12-05T23:02:57.721Z,21.73
2017-12-05T23:05:25.148Z,25.53
2017-12-05T23:07:52.583Z,26.43
2017-12-05T23:10:20.017Z,23.53
2017-12-05T23:12:47.462Z,29.67
2017-12-05T23:15:14.903Z,28.23
2017-12-05T23:17:42.337Z,26.83
2017-12-05T23:20:10.549Z,29.80
2017-12-05T23:22:38.031Z,26.17
2017-12-05T23:25:05.473Z,22.17
2017-12-05T23:27:32.905Z,27.13
2017-12-05T23:30:00.335Z,25.93
2017-12-05T23:32:28.540Z,26.30
2017-12-05T23:34:55.960Z,27.07
2017-12-05T23:37:23.411Z,25.27
2017-12-05T23:39:50.840Z,29.77
2017-12-05T23:42:18.279Z,29.20
2017-12-05T23:44:45.708Z,23.10
2017-12-05T23:47:14.341Z,27.73
2017-12-05T23:49:41.780Z,25.90
2017-12-05T23:52:09.210Z,29.13
2017-12-05T23:54:36.646Z,23.40
2017-12-05T23:57:04.836Z,24.27
2017-12-05T23:59:33.044Z,28.07
